Flight Track Log - Related Links

Times and Time Zones

All times are in EDT time to prevent confusion due to time zone crossing. See the N693PD flight status page for this flight to view local times or setup timezone preferences in your user account.

Time Position Orientation Groundspeed Altitude Reporting Facility
EDT Latitude Longitude Course Direction KTS MPH feet Rate Location/Type
Mon 08:11:17 AM 33.9667 -84.6500 160° South 182 209 3,000  Level Atlanta TRACON
Mon 08:12:17 AM 33.9000 -84.6833 203° Southwest 236 272 3,100 48 Climbing Atlanta TRACON
Mon 08:13:23 AM 33.8333 -84.6833 180° South 249 287 3,100  Level Atlanta TRACON
Mon 08:14:23 AM 33.7667 -84.7000 192° South 254 292 3,100  Level Atlanta TRACON
Mon 08:15:17 AM 33.7000 -84.7000 180° South 253 291 3,100  Level Atlanta TRACON
Mon 08:16:00 AM 33.6695 -84.3786 160° South  Level Estimated
Mon 08:16:17 AM 33.6333 -84.6833 168° South 251 289 3,100  Level Atlanta TRACON
Mon 08:17:23 AM 33.5500 -84.6667 171° South 255 293 3,100  Level Atlanta TRACON
Mon 08:18:17 AM 33.4833 -84.6667 180° South 253 291 3,100 700 Level Atlanta TRACON
Mon 08:19:23 AM 33.4167 -84.6167 148° Southeast 218 251 4,500 1,200 Climbing Atlanta TRACON
Mon 08:20:17 AM 33.3833 -84.5833 140° Southeast 211 243 5,500 632 Climbing Atlanta TRACON
Mon 08:21:55 AM 33.2964 -84.5233 150° Southeast 245 282 6,100 608 Climbing Atlanta Center
Mon 08:22:55 AM 33.2425 -84.4758 144° Southeast 245 282 7,100 1,050 Climbing Atlanta Center
Mon 08:23:55 AM 33.1861 -84.4286 145° Southeast 234 269 8,200 1,050 Climbing Atlanta Center
Mon 08:24:55 AM 33.1364 -84.3786 140° Southeast 234 269 9,200 1,300 Climbing Atlanta Center
Mon 08:25:55 AM 33.0800 -84.3536 160° South 223 257 10,800 1,600 Climbing Atlanta Center
Mon 08:26:55 AM 33.0278 -84.3311 160° South 207 238 12,400 1,550 Climbing Atlanta Center
Mon 08:27:55 AM 32.9778 -84.3086 159° South 207 238 13,900 1,350 Climbing Atlanta Center
Mon 08:28:55 AM 32.9256 -84.2864 160° South 207 238 15,100 1,250 Climbing Atlanta Center
Mon 08:29:55 AM 32.8736 -84.2589 156° South 207 238 16,400 1,200 Climbing Atlanta Center
Mon 08:30:55 AM 32.8214 -84.2367 160° South 202 232 17,500 950 Climbing Atlanta Center
Mon 08:31:55 AM 32.7672 -84.2092 157° South 208 239 18,300 750 Climbing Atlanta Center
Mon 08:32:55 AM 32.7131 -84.1819 157° South 208 239 19,000 350 Climbing Atlanta Center
Mon 08:33:55 AM 32.6503 -84.1547 160° South 223 257 19,000  Level Atlanta Center
Mon 08:36:03 AM 32.5117 -84.0850 157° South 266 306 19,000  Level Jacksonville Center
Mon 08:37:03 AM 32.4411 -84.0519 158° South 271 312 19,000  Level Jacksonville Center
Mon 08:38:03 AM 32.3703 -84.0192 159° South 276 318 19,000  Level Jacksonville Center
Mon 08:39:03 AM 32.3017 -83.9864 158° South 276 318 19,000  Level Jacksonville Center
Mon 08:40:03 AM 32.2311 -83.9536 159° South 271 312 19,000  Level Jacksonville Center
Mon 08:41:03 AM 32.1625 -83.9208 158° South 271 312 19,000  Level Jacksonville Center
Mon 08:42:03 AM 32.0917 -83.8858 157° South 276 318 19,000  Level Jacksonville Center
Mon 08:43:03 AM 32.0250 -83.8606 162° South 271 312 19,000  Level Jacksonville Center
Mon 08:44:03 AM 31.9522 -83.8231 156° South 271 312 19,000  Level Jacksonville Center
Mon 08:44:27 AM 31.9147 -83.8081 161° South 270 311 19,000  Level Jacksonville Center
Mon 08:45:03 AM 31.8878 -83.7881 148° Southeast 271 312 19,000  Level Jacksonville Center
Mon 08:45:34 AM 31.8419 -83.7706 162° South 270 311 19,000  Level Jacksonville Center
Mon 08:46:03 AM 31.8169 -83.7581 157° South 271 312 19,000  Level Jacksonville Center
Mon 08:46:34 AM 31.7711 -83.7381 160° South 269 310 19,000  Level Jacksonville Center
Mon 08:47:03 AM 31.7483 -83.7233 151° Southeast 271 312 19,000  Level Jacksonville Center
Mon 08:47:35 AM 31.7047 -83.7081 163° South 266 306 19,000  Level Jacksonville Center
Mon 08:48:03 AM 31.6797 -83.6883 146° Southeast 271 312 19,000  Level Jacksonville Center
Mon 08:48:41 AM 31.6275 -83.6733 166° South 263 303 19,000  Level Jacksonville Center
Mon 08:49:03 AM 31.6108 -83.6611 148° Southeast 271 312 19,000  Level Jacksonville Center
Mon 08:49:42 AM 31.5589 -83.6411 162° South 261 300 19,000  Level Jacksonville Center
Mon 08:50:03 AM 31.5464 -83.6289 140° Southeast 264 304 19,000  Level Jacksonville Center
Mon 08:50:37 AM 31.4983 -83.6139 165° South 260 299 19,000  Level Jacksonville Center
Mon 08:51:03 AM 31.4778 -83.5967 144° Southeast 264 304 19,000  Level Jacksonville Center
Mon 08:51:37 AM 31.4278 -83.5792 163° South 258 297 19,000  Level Jacksonville Center
Mon 08:52:03 AM 31.3986 -83.5667 160° South 264 304 19,000  Level Jacksonville Center
Mon 08:52:44 AM 31.3589 -83.5494 160° South 258 297 19,000  Level Jacksonville Center
Mon 08:53:03 AM 31.3422 -83.5372 148° Southeast 264 304 19,000  Level Jacksonville Center
Mon 08:53:44 AM 31.2881 -83.5175 163° South 260 299 19,000  Level Jacksonville Center
Mon 08:54:03 AM 31.2756 -83.5050 139° Southeast 258 297 19,000  Level Jacksonville Center
Mon 08:54:45 AM 31.2172 -83.4828 162° South 262 302 19,000  Level Jacksonville Center
Mon 08:55:52 AM 31.1464 -83.4508 159° South 263 303 19,000  Level Jacksonville Center
Mon 08:56:52 AM 31.0736 -83.4164 158° South 265 305 19,000  Level Jacksonville Center
Mon 08:57:27 AM 31.0422 -83.4017 158° South 264 304 19,000  Level Jacksonville Center
Mon 08:57:53 AM 31.0025 -83.3847 160° South 265 305 19,000  Level Jacksonville Center
Mon 08:58:27 AM 30.9733 -83.3650 150° Southeast 264 304 19,000  Level Jacksonville Center
Mon 08:58:48 AM 30.9422 -83.3578 169° South 266 306 19,000  Level Jacksonville Center
Mon 08:59:27 AM 30.9067 -83.3333 149° Southeast 264 304 19,000  Level Jacksonville Center
Mon 08:59:54 AM 30.8650 -83.3233 168° South 266 306 19,000  Level Jacksonville Center
Mon 09:00:55 AM 30.8003 -83.2917 157° South 264 304 19,000  Level Jacksonville Center
Mon 09:01:39 AM 30.7608 -83.2528 140° Southeast 275 316 19,000  Level Jacksonville Center
Mon 09:02:39 AM 30.7150 -83.1706 123° Southeast 288 331 19,000  Level Jacksonville Center
Mon 09:03:39 AM 30.6714 -83.0906 122° Southeast 294 338 19,000  Level Jacksonville Center
Mon 09:04:39 AM 30.6214 -83.0061 125° Southeast 294 338 19,000  Level Jacksonville Center
Mon 09:05:39 AM 30.5547 -82.9842 164° South 257 296 19,000  Level Jacksonville Center
Mon 09:06:39 AM 30.4900 -82.9600 162° South 245 282 19,000  Level Jacksonville Center
Mon 09:07:39 AM 30.4231 -82.9214 154° Southeast 251 289 19,000  Level Jacksonville Center
Mon 09:08:39 AM 30.3583 -82.8878 156° South 256 295 19,000  Level Jacksonville Center
Mon 09:09:39 AM 30.2917 -82.8758 171° South 250 288 19,000  Level Jacksonville Center
Mon 09:10:39 AM 30.2247 -82.8636 171° South 245 282 19,000  Level Jacksonville Center
Mon 09:11:39 AM 30.1622 -82.8158 147° Southeast 240 276 19,000 -250 Level Jacksonville Center
Mon 09:12:39 AM 30.0972 -82.7750 151° Southeast 254 292 18,500 -650 Descending Jacksonville Center
Mon 09:13:39 AM 30.0264 -82.7319 152° Southeast 272 313 17,700 -850 Descending Jacksonville Center
Mon 09:14:39 AM 29.9617 -82.6961 154° Southeast 284 327 16,800 -950 Descending Jacksonville Center
Mon 09:15:39 AM 29.8864 -82.6531 154° Southeast 284 327 15,800 -900 Descending Jacksonville Center
Mon 09:16:39 AM 29.8089 -82.6031 151° Southeast 284 327 15,000 -429 Descending Jacksonville Center
Mon 09:17:31 AM 29.7461 -82.5697 155° Southeast 283 326 15,000 -297 Level Jacksonville Center
Mon 09:18:20 AM 29.6919 -82.5364 152° Southeast 274 315 14,500 -618 Descending Jacksonville Center
Mon 09:18:39 AM 29.6708 -82.5197 146° Southeast 284 327 14,300 -689 Descending Jacksonville Center
Mon 09:19:21 AM 29.6208 -82.4936 156° South 282 325 13,800 -700 Descending Jacksonville Center
Mon 09:19:39 AM 29.6019 -82.4794 147° Southeast 284 327 13,600 -689 Descending Jacksonville Center
Mon 09:20:22 AM 29.5517 -82.4508 154° Southeast 288 331 13,100 -600 Descending Jacksonville Center
Mon 09:20:39 AM 29.5286 -82.4344 148° Southeast 284 327 13,000 -590 Descending Jacksonville Center
Mon 09:21:23 AM 29.4786 -82.4058 154° Southeast 291 335 12,500 -700 Descending Jacksonville Center
Mon 09:21:39 AM 29.4575 -82.3942 154° Southeast 284 327 12,300 -787 Descending Jacksonville Center
Mon 09:22:24 AM 29.3989 -82.3611 154° Southeast 296 341 11,700 -800 Descending Jacksonville Center
Mon 09:22:39 AM 29.3864 -82.3517 147° Southeast 284 327 11,500 -885 Descending Jacksonville Center
Mon 09:23:25 AM 29.3278 -82.3208 155° Southeast 293 337 10,800 -953 Descending Jacksonville Center
Mon 09:24:26 AM 29.2589 -82.2761 150° Southeast 291 335 9,800 -984 Descending Jacksonville Center
Mon 09:25:27 AM 29.2061 -82.2028 129° Southeast 300 345 8,800 -934 Descending Jacksonville Center
Mon 09:26:28 AM 29.1475 -82.1317 133° Southeast 285 328 7,900 -671 Descending Jacksonville Center
Mon 09:28:08 AM 29.0667 -82.0167 129° Southeast 270 311 7,000 -351 Descending Orlando TRACON
Mon 09:29:02 AM 29.0167 -81.9667 139° Southeast 269 310 7,000 -474 Level Orlando TRACON
Mon 09:30:02 AM 28.9667 -81.9000 131° Southeast 272 313 6,100 -496 Descending Orlando TRACON
Mon 09:31:03 AM 28.9167 -81.8333 131° Southeast 269 310 6,000 -417 Descending Orlando TRACON
Mon 09:31:57 AM 28.8667 -81.7833 139° Southeast 260 299 5,300 -905 Descending Orlando TRACON
Mon 09:33:09 AM 28.8333 -81.7000 115° Southeast 254 292 4,100 -955 Descending Orlando TRACON
Mon 09:34:09 AM 28.8167 -81.6333 106° East 245 282 3,200 -550 Descending Orlando TRACON
Mon 09:35:09 AM 28.8000 -81.5500 103° East 233 268 3,000 -99 Descending Orlando TRACON
Mon 09:36:10 AM 28.7833 -81.4833 106° East 227 261 3,000  Level Orlando TRACON
Mon 09:37:04 AM 28.7833 -81.4167 90° East 221 254 3,000  Level Orlando TRACON
Mon 09:38:04 AM 28.7500 -81.3667 127° Southeast 220 253 3,000 -350 Level Orlando TRACON
Mon 09:39:04 AM 28.7167 -81.3167 127° Southeast 220 253 2,300 -500 Descending Orlando TRACON
Mon 09:40:04 AM 28.6667 -81.2667 139° Southeast 200 230 2,000 -105 Descending Orlando TRACON
Mon 09:40:58 AM 28.6167 -81.2500 164° South 174 200 2,100 -330 Climbing Orlando TRACON
Mon 09:41:53 AM 28.5833 -81.2667 204° Southwest 149 171 1,400 -744 Descending Orlando TRACON
Mon 09:42:59 AM 28.5667 -81.3000 240° Southwest 122 140 600 -727 Descending Orlando TRACON
Mon 09:44:00 AM 28.5333 -81.3167 90° East  Level FlightAware Approximate
Mon 09:51:00 AM 28.5455 -81.3329 90° East  Level Estimated
Mon 09:52:00 AM 28.5455 -81.3329 90° East  Level Estimated
Mon 09:53:00 AM 28.5455 -81.3329 90° East  Level Estimated
Mon 09:54:00 AM 28.5455 -81.3329 90° East  Level Estimated

Login

Don't have an account? Register now (free) for customized features, flight alerts, and more!